Flight Track Log - Related Links

Times and Time Zones

All times are in EDT time to prevent confusion due to time zone crossing. See the EJA122 flight status page for this flight to view local times or setup timezone preferences in your user account.

Time Position Orientation Groundspeed Altitude Reporting Facility
EDT Latitude Longitude Course Direction KTS MPH feet Rate Location/Type
Tue 03:30:40 PM 32.1311 -81.1139 56° Northeast 224 258 3,400  Level Jacksonville Center
Tue 03:31:40 PM 32.1636 -81.0569 56° Northeast 236 272 5,400 2,400 Climbing Jacksonville Center
Tue 03:32:40 PM 32.2189 -80.9822 49° Northeast 268 308 8,200 2,350 Climbing Jacksonville Center
Tue 03:33:40 PM 32.2661 -80.9197 48° Northeast 275 316 10,100 1,650 Climbing Jacksonville Center
Tue 03:34:40 PM 32.3231 -80.8397 50° Northeast 282 325 11,500 1,250 Climbing Jacksonville Center
Tue 03:35:40 PM 32.3764 -80.7672 49° Northeast 304 350 12,600 1,150 Climbing Jacksonville Center
Tue 03:36:40 PM 32.4436 -80.6722 50° Northeast 330 380 13,800 1,200 Climbing Jacksonville Center
Tue 03:37:40 PM 32.5067 -80.5844 50° Northeast 330 380 15,000 1,150 Climbing Jacksonville Center
Tue 03:38:40 PM 32.5678 -80.4967 50° Northeast 343 395 16,100 1,200 Climbing Jacksonville Center
Tue 03:39:40 PM 32.6328 -80.4061 50° Northeast 348 400 17,400 1,200 Climbing Jacksonville Center
Tue 03:40:40 PM 32.6956 -80.3181 50° Northeast 348 400 18,500 1,200 Climbing Jacksonville Center
Tue 03:41:40 PM 32.7586 -80.2297 50° Northeast 348 400 19,800 1,250 Climbing Jacksonville Center
Tue 03:42:40 PM 32.8192 -80.1414 51° Northeast 348 400 21,000 1,150 Climbing Jacksonville Center
Tue 03:43:40 PM 32.8842 -80.0528 49° Northeast 348 400 22,100 1,100 Climbing Jacksonville Center
Tue 03:44:40 PM 32.9639 -79.9836 36° Northeast 343 395 23,200 1,100 Climbing Jacksonville Center
Tue 03:45:40 PM 33.0481 -79.9239 31° Northeast 348 400 24,300 1,100 Climbing Jacksonville Center
Tue 03:46:40 PM 33.1322 -79.8639 31° Northeast 348 400 25,400 1,000 Climbing Jacksonville Center
Tue 03:47:40 PM 33.2183 -79.8014 31° Northeast 355 409 26,300 950 Climbing Jacksonville Center
Tue 03:48:40 PM 33.3044 -79.7386 31° Northeast 355 409 27,300 1,000 Climbing Jacksonville Center
Tue 03:49:40 PM 33.3906 -79.6736 32° Northeast 355 409 28,300 950 Climbing Jacksonville Center
Tue 03:50:40 PM 33.4786 -79.6106 31° Northeast 355 409 29,200 900 Climbing Jacksonville Center
Tue 03:51:40 PM 33.5647 -79.5475 31° Northeast 355 409 30,100 850 Climbing Jacksonville Center
Tue 03:52:40 PM 33.6528 -79.4844 31° Northeast 360 414 30,900 700 Climbing Jacksonville Center
Tue 03:53:40 PM 33.7264 -79.4292 32° Northeast 355 409 31,500 550 Climbing Jacksonville Center
Tue 03:54:40 PM 33.8142 -79.3631 32° Northeast 355 409 32,000 550 Climbing Jacksonville Center
Tue 03:55:40 PM 33.9042 -79.2994 30° Northeast 355 409 32,600 551 Climbing Jacksonville Center
Tue 03:58:07 PM 34.1194 -79.1364 32° Northeast 375 432 33,900 551 Climbing Washington Center
Tue 03:59:07 PM 34.2089 -79.0697 32° Northeast 375 432 34,500 555 Climbing Washington Center
Tue 04:00:06 PM 34.2983 -79.0058 31° Northeast 387 445 35,000 252 Climbing Washington Center
Tue 04:01:06 PM 34.3900 -78.9342 33° Northeast 382 440 35,000  Level Washington Center
Tue 04:02:07 PM 34.4839 -78.8675 30° Northeast 382 440 35,000  Level Washington Center
Tue 04:03:08 PM 34.5883 -78.7808 34° Northeast 402 463 35,000  Level Washington Center
Tue 04:04:06 PM 34.6864 -78.7036 33° Northeast 407 468 35,000  Level Washington Center
Tue 04:05:19 PM 34.7822 -78.6317 32° Northeast 407 468 35,000  Level Washington Center
Tue 04:06:19 PM 34.8969 -78.5447 32° Northeast 407 468 35,000  Level Washington Center
Tue 04:07:20 PM 34.9947 -78.4697 32° Northeast 407 468 35,000  Level Washington Center
Tue 04:08:19 PM 35.0947 -78.3919 32° Northeast 417 480 35,000  Level Washington Center
Tue 04:09:19 PM 35.1925 -78.3114 34° Northeast 417 480 35,000  Level Washington Center
Tue 04:10:20 PM 35.2964 -78.2336 31° Northeast 422 486 35,000  Level Washington Center
Tue 04:11:18 PM 35.3964 -78.1553 33° Northeast 422 486 35,000  Level Washington Center
Tue 04:12:19 PM 35.4958 -78.0794 32° Northeast 422 486 35,000  Level Washington Center
Tue 04:13:19 PM 35.5978 -78.0008 32° Northeast 422 486 35,000  Level Washington Center
Tue 04:14:19 PM 35.6994 -77.9219 32° Northeast 422 486 35,000  Level Washington Center
Tue 04:15:20 PM 35.8011 -77.8431 32° Northeast 422 486 35,000  Level Washington Center
Tue 04:16:18 PM 35.9028 -77.7639 32° Northeast 422 486 35,000  Level Washington Center
Tue 04:17:19 PM 36.0022 -77.6844 33° Northeast 422 486 35,000  Level Washington Center
Tue 04:18:20 PM 36.1019 -77.5919 37° Northeast 422 486 35,000  Level Washington Center
Tue 04:19:18 PM 36.1972 -77.5017 37° Northeast 432 497 35,000  Level Washington Center
Tue 04:20:19 PM 36.2903 -77.4139 37° Northeast 432 497 35,000  Level Washington Center
Tue 04:21:19 PM 36.3836 -77.3231 38° Northeast 427 491 35,000  Level Washington Center
Tue 04:22:18 PM 36.4786 -77.2347 37° Northeast 427 491 35,000  Level Washington Center
Tue 04:23:18 PM 36.5778 -77.1439 36° Northeast 427 491 35,000  Level Washington Center
Tue 04:24:19 PM 36.6708 -77.0550 37° Northeast 427 491 35,000  Level Washington Center
Tue 04:25:20 PM 36.7636 -76.9661 37° Northeast 427 491 35,000  Level Washington Center
Tue 04:26:20 PM 36.8586 -76.8794 36° Northeast 421 484 35,000  Level Washington Center
Tue 04:27:18 PM 36.9533 -76.7953 35° Northeast 416 479 35,000  Level Washington Center
Tue 04:28:19 PM 37.0417 -76.7161 36° Northeast 416 479 35,000  Level Washington Center
Tue 04:29:20 PM 37.1364 -76.6261 37° Northeast 421 484 35,000  Level Washington Center
Tue 04:30:19 PM 37.2331 -76.5389 36° Northeast 421 484 35,000  Level Washington Center
Tue 04:31:20 PM 37.3297 -76.4511 36° Northeast 421 484 35,000  Level Washington Center
Tue 04:32:18 PM 37.4261 -76.3633 36° Northeast 426 490 35,000  Level Washington Center
Tue 04:33:19 PM 37.5267 -76.2753 35° Northeast 426 490 35,000  Level Washington Center
Tue 04:34:20 PM 37.6211 -76.1869 37° Northeast 431 496 35,000  Level Washington Center
Tue 04:35:20 PM 37.7300 -76.0958 33° Northeast 431 496 35,000  Level Washington Center
Tue 04:36:20 PM 37.8158 -76.0072 39° Northeast 431 496 35,000  Level Washington Center
Tue 04:37:19 PM 37.9244 -75.9050 37° Northeast 431 496 35,000  Level Washington Center
Tue 04:38:18 PM 38.0019 -75.8317 37° Northeast 437 503 35,000  Level Washington Center
Tue 04:39:18 PM 38.1189 -75.7211 37° Northeast 437 503 35,000  Level Washington Center
Tue 04:40:19 PM 38.2169 -75.6286 37° Northeast 437 503 35,000  Level Washington Center
Tue 04:41:20 PM 38.2942 -75.5547 37° Northeast 432 497 35,000  Level Washington Center
Tue 04:42:18 PM 38.4067 -75.4592 34° Northeast 432 497 35,000  Level Washington Center
Tue 04:43:18 PM 38.5086 -75.3689 35° Northeast 432 497 35,000  Level Washington Center
Tue 04:44:19 PM 38.6106 -75.2861 32° Northeast 432 497 35,000  Level Washington Center
Tue 04:45:20 PM 38.7125 -75.1925 36° Northeast 443 510 35,000  Level Washington Center
Tue 04:46:18 PM 38.8142 -75.1014 35° Northeast 443 510 35,000  Level Washington Center
Tue 04:47:19 PM 38.9161 -75.0153 33° Northeast 443 510 35,000  Level Washington Center
Tue 04:48:19 PM 39.0178 -74.9236 35° Northeast 443 510 35,000  Level Washington Center
Tue 04:49:20 PM 39.1192 -74.8344 34° Northeast 443 510 35,000  Level Washington Center
Tue 04:50:20 PM 39.2208 -74.7450 34° Northeast 443 510 35,000  Level Washington Center
Tue 04:51:18 PM 39.3222 -74.6553 34° Northeast 443 510 35,000  Level Washington Center
Tue 04:52:19 PM 39.4214 -74.5625 36° Northeast 443 510 35,000  Level Washington Center
Tue 04:53:27 PM 39.5475 -74.4511 34° Northeast 460 529 35,000  Level New York Center
Tue 04:54:27 PM 39.6375 -74.3697 35° Northeast 460 529 35,000 -650 Level New York Center
Tue 04:55:27 PM 39.7406 -74.2750 35° Northeast 460 529 33,700 -1,850 Descending New York Center
Tue 04:56:27 PM 39.8433 -74.1828 35° Northeast 453 521 31,300 -2,380 Descending New York Center
Tue 04:57:28 PM 39.9417 -74.0928 35° Northeast 459 528 28,900 -2,311 Descending New York Center
Tue 04:58:29 PM 40.0400 -74.0056 34° Northeast 453 521 26,600 -1,918 Descending New York Center
Tue 04:59:30 PM 40.1386 -73.9122 36° Northeast 453 521 25,000 -864 Descending New York Center
Tue 05:00:27 PM 40.2408 -73.8217 34° Northeast 453 521 24,900 -661 Descending New York Center
Tue 05:01:28 PM 40.3497 -73.7206 35° Northeast 453 521 23,700 -1,289 Descending New York Center
Tue 05:02:28 PM 40.4500 -73.6292 35° Northeast 448 516 22,300 -1,314 Descending New York Center
Tue 05:04:17 PM 40.6161 -73.4653 37° Northeast 447 514 20,000 -1,172 Descending Boston Center
Tue 05:05:17 PM 40.7231 -73.3739 33° Northeast 427 491 19,000 -500 Descending Boston Center
Tue 05:06:17 PM 40.8156 -73.2847 36° Northeast 421 484 19,000  Level Boston Center
Tue 05:07:18 PM 40.9017 -73.1814 42° Northeast 416 479 19,000 -545 Level Boston Center
Tue 05:08:29 PM 41.0044 -73.0617 41° Northeast 411 473 17,800 -1,649 Descending Boston Center
Tue 05:09:29 PM 41.0861 -72.9661 41° Northeast 406 467 15,400 -2,283 Descending Boston Center
Tue 05:10:01 PM 41.1261 -72.9194 41° Northeast 386 444 14,300 -2,138 Descending Boston Center
Tue 05:10:56 PM 41.1972 -72.8344 42° Northeast 372 428 12,300 -2,182 Descending Boston Center
Tue 05:11:29 PM 41.2411 -72.7797 43° Northeast 377 434 11,100 -839 Descending Boston Center
Tue 05:12:29 PM 41.3183 -72.7164 32° Northeast 346 398 11,000 -450 Descending Boston Center
Tue 05:13:29 PM 41.4061 -72.7031 North 315 362 10,200 -650 Descending Boston Center
Tue 05:14:29 PM 41.4936 -72.6839 North 315 362 9,700 -900 Descending Boston Center
Tue 05:15:29 PM 41.5686 -72.6703 North 287 330 8,400 -1,400 Descending Boston Center
Tue 05:15:59 PM 41.6061 -72.6622 North 277 319 7,600 -1,500 Descending Boston Center
Tue 05:16:29 PM 41.6458 -72.6539 North 276 318 6,900 -1,612 Descending Boston Center
Tue 05:17:06 PM 41.6894 -72.6431 11° North 271 312 5,800 -1,107 Descending Boston Center
Tue 05:18:12 PM 41.7689 -72.6294 North 254 292 5,000 -520 Descending Boston Center
Tue 05:19:13 PM 41.8333 -72.6183 North 221 254 4,700 -836 Descending Boston Center
Tue 05:20:14 PM 41.8939 -72.6075 North 217 250 3,300 -1,041 Descending Boston Center
Tue 05:21:14 PM 41.9481 -72.5992 North 201 231 2,600 -1,022 Descending Boston Center
Tue 05:22:29 PM 41.9708 -72.6494 301° West 139 160 1,000 -1,067 Descending Boston Center
Tue 05:23:29 PM 41.9519 -72.6717 221° Southwest 99 114 200 -800 Descending Boston Center
Tue 05:26:00 PM 41.9333 -72.6833 45° Northeast  Level FlightAware Approximate

Login

Don't have an account? Register now (free) for customized features, flight alerts, and more!